createdAt,value
2022-09-27T00:01:01.257Z,87.44
2022-09-27T00:03:28.857Z,87.02
2022-09-27T00:06:05.872Z,87.45
2022-09-27T00:08:33.435Z,86.61
2022-09-27T00:11:07.469Z,86.78
2022-09-27T00:13:34.305Z,86.98
2022-09-27T00:16:04.805Z,86.43
2022-09-27T00:18:31.577Z,86.52
2022-09-27T00:21:05.093Z,85.83
2022-09-27T00:23:32.468Z,86.35
2022-09-27T00:25:59.137Z,86.06
2022-09-27T00:28:25.802Z,86.07
2022-09-27T00:30:52.702Z,85.82
2022-09-27T00:33:19.372Z,86.13
2022-09-27T00:35:46.097Z,86.07
2022-09-27T00:38:12.979Z,85.88
2022-09-27T00:40:39.631Z,85.99
2022-09-27T00:43:19.193Z,85.71
2022-09-27T00:45:53.501Z,85.58
2022-09-27T00:48:21.966Z,85.56
2022-09-27T00:50:49.620Z,85.93
2022-09-27T00:53:24.224Z,86.17
2022-09-27T00:55:56.143Z,86.22
2022-09-27T00:58:29.533Z,86.11
2022-09-27T01:01:14.360Z,86.56
2022-09-27T01:04:06.128Z,86.35
2022-09-27T01:06:32.694Z,86.55
2022-09-27T01:08:59.424Z,86.44
2022-09-27T01:11:39.878Z,86.76
2022-09-27T01:14:48.196Z,86.85
2022-09-27T01:18:05.658Z,86.73
2022-09-27T01:20:50.845Z,86.72
2022-09-27T01:23:26.647Z,87.15
2022-09-27T01:25:59.371Z,86.98
2022-09-27T01:28:50.322Z,86.91
2022-09-27T01:31:22.728Z,86.97
2022-09-27T01:34:17.011Z,87.18
2022-09-27T01:37:01.313Z,86.54
2022-09-27T01:39:27.822Z,87.03
2022-09-27T01:42:24.256Z,87.01
2022-09-27T01:44:54.482Z,86.97
2022-09-27T01:47:27.229Z,87.09
2022-09-27T01:50:08.755Z,87.01
2022-09-27T01:52:44.895Z,87.48
2022-09-27T01:55:12.274Z,87.26
2022-09-27T01:57:44.085Z,87.30
2022-09-27T02:00:11.405Z,87.09
2022-09-27T02:03:12.424Z,87.11
2022-09-27T02:05:46.714Z,86.85
2022-09-27T02:08:40.125Z,86.82
2022-09-27T02:11:10.177Z,86.98
2022-09-27T02:13:54.728Z,86.63
2022-09-27T02:16:48.480Z,86.94
2022-09-27T02:19:40.150Z,87.07
2022-09-27T02:22:09.342Z,87.06
2022-09-27T02:24:42.777Z,87.40
2022-09-27T02:27:15.476Z,87.22
2022-09-27T02:29:46.463Z,87.06
2022-09-27T02:32:13.072Z,87.85
2022-09-27T02:34:39.842Z,87.40
2022-09-27T02:37:06.402Z,87.45
2022-09-27T02:39:33.299Z,87.30
2022-09-27T02:42:00.214Z,87.22
2022-09-27T02:44:26.837Z,87.29
2022-09-27T02:47:00.371Z,86.99
2022-09-27T02:49:35.067Z,87.35
2022-09-27T02:52:04.767Z,87.42
2022-09-27T02:54:35.324Z,87.57
2022-09-27T02:57:10.332Z,87.12
2022-09-27T03:00:10.573Z,87.01
2022-09-27T03:03:04.394Z,86.86
2022-09-27T03:05:45.869Z,86.68
2022-09-27T03:08:12.602Z,87.08
2022-09-27T03:10:39.276Z,87.30
2022-09-27T03:13:06.012Z,87.84
2022-09-27T03:15:32.639Z,87.72
2022-09-27T03:17:59.594Z,88.45
2022-09-27T03:20:26.219Z,88.21
2022-09-27T03:22:52.812Z,88.13
2022-09-27T03:25:21.474Z,88.49
2022-09-27T03:27:48.235Z,88.17
2022-09-27T03:30:14.839Z,88.33
2022-09-27T03:32:44.982Z,88.20
2022-09-27T03:35:12.413Z,87.68
2022-09-27T03:37:39.437Z,87.96
2022-09-27T03:40:06.659Z,88.04
2022-09-27T03:42:33.435Z,87.83
2022-09-27T03:45:00.006Z,88.31
2022-09-27T03:47:26.558Z,88.28
2022-09-27T03:49:53.212Z,87.86
2022-09-27T03:52:19.774Z,88.33
2022-09-27T03:54:46.464Z,88.32
2022-09-27T03:57:13.367Z,87.94
2022-09-27T03:59:39.957Z,88.12
2022-09-27T04:02:06.544Z,87.92
2022-09-27T04:04:33.179Z,88.33
2022-09-27T04:06:59.726Z,88.13
2022-09-27T04:09:26.375Z,88.50
2022-09-27T04:11:52.996Z,88.35
2022-09-27T04:14:19.787Z,88.22
2022-09-27T04:16:46.610Z,88.07
2022-09-27T04:19:13.380Z,88.37
2022-09-27T04:21:40.051Z,88.29
2022-09-27T04:24:06.684Z,88.20
2022-09-27T04:26:33.374Z,88.21
2022-09-27T04:29:00.026Z,88.33
2022-09-27T04:31:26.602Z,88.49
2022-09-27T04:33:54.723Z,88.25
2022-09-27T04:36:28.138Z,88.59
2022-09-27T04:38:55.727Z,88.04
2022-09-27T04:41:23.392Z,88.14
2022-09-27T04:43:54.198Z,88.24
2022-09-27T04:46:25.078Z,88.21
2022-09-27T04:48:51.701Z,88.53
2022-09-27T04:51:18.432Z,88.77
2022-09-27T04:53:45.116Z,88.30
2022-09-27T04:56:12.695Z,88.63
2022-09-27T04:58:39.406Z,88.95
2022-09-27T05:01:06.288Z,89.00
2022-09-27T05:03:33.044Z,88.47
2022-09-27T05:06:00.716Z,88.96
2022-09-27T05:08:28.507Z,88.85
2022-09-27T05:10:55.165Z,88.42
2022-09-27T05:13:22.360Z,88.88
2022-09-27T05:15:48.981Z,88.85
2022-09-27T05:18:15.701Z,88.98
2022-09-27T05:20:42.254Z,88.76
2022-09-27T05:23:08.857Z,88.88
2022-09-27T05:25:35.682Z,88.92
2022-09-27T05:28:02.491Z,88.95
2022-09-27T05:30:29.116Z,88.93
2022-09-27T05:32:55.701Z,88.96
2022-09-27T05:35:22.394Z,88.72
2022-09-27T05:37:56.423Z,88.57
2022-09-27T05:40:42.289Z,88.14
2022-09-27T05:43:09.263Z,88.11
2022-09-27T05:45:35.922Z,87.76
2022-09-27T05:48:03.265Z,87.77
2022-09-27T05:50:29.915Z,87.76
2022-09-27T05:52:56.580Z,87.83
2022-09-27T05:55:23.225Z,87.89
2022-09-27T05:58:03.259Z,88.14
2022-09-27T06:00:29.880Z,88.07
2022-09-27T06:02:57.439Z,87.91
2022-09-27T06:06:16.930Z,88.69
2022-09-27T06:08:44.105Z,87.91
2022-09-27T06:11:14.662Z,88.30
2022-09-27T06:13:41.409Z,87.87
2022-09-27T06:16:10.105Z,87.72
2022-09-27T06:18:37.180Z,87.52
2022-09-27T06:21:04.195Z,87.73
2022-09-27T06:23:33.705Z,86.94
2022-09-27T06:26:05.098Z,87.45
2022-09-27T06:28:32.349Z,87.46
2022-09-27T06:31:01.127Z,87.50
2022-09-27T06:33:31.155Z,87.94
2022-09-27T06:35:57.810Z,88.39
2022-09-27T06:38:25.983Z,88.83
2022-09-27T06:40:52.931Z,89.46
2022-09-27T06:43:20.670Z,90.28
2022-09-27T06:45:47.527Z,90.59
2022-09-27T06:48:14.918Z,90.77
2022-09-27T06:50:44.141Z,90.57
2022-09-27T06:53:11.879Z,90.02
2022-09-27T06:55:38.798Z,88.54
2022-09-27T06:58:24.000Z,88.01
2022-09-27T07:00:53.821Z,87.32
2022-09-27T07:03:23.089Z,86.73
2022-09-27T07:05:57.072Z,86.83
2022-09-27T07:08:26.397Z,85.72
2022-09-27T07:10:54.804Z,85.28
2022-09-27T07:13:21.775Z,83.39
2022-09-27T07:15:48.408Z,82.52
2022-09-27T07:18:15.209Z,81.81
2022-09-27T07:20:41.883Z,80.57
2022-09-27T07:23:09.846Z,80.10
2022-09-27T07:25:36.717Z,80.18
2022-09-27T07:28:05.440Z,79.31
2022-09-27T07:30:32.610Z,79.26
2022-09-27T07:33:04.886Z,78.40
2022-09-27T07:35:31.566Z,78.08
2022-09-27T07:37:59.015Z,78.51
2022-09-27T07:40:26.944Z,79.05
2022-09-27T07:42:57.379Z,78.46
2022-09-27T07:45:24.774Z,77.89
2022-09-27T07:47:51.491Z,77.71
2022-09-27T07:50:18.255Z,77.63
2022-09-27T07:52:46.365Z,77.85
2022-09-27T07:55:14.366Z,76.79
2022-09-27T07:57:41.409Z,76.14
2022-09-27T08:00:10.293Z,76.65
2022-09-27T08:02:37.774Z,76.35
2022-09-27T08:05:04.772Z,76.59
2022-09-27T08:08:03.821Z,76.91
2022-09-27T08:10:31.814Z,74.69
2022-09-27T08:12:59.674Z,74.12
2022-09-27T08:15:28.583Z,73.92
2022-09-27T08:17:55.587Z,74.03
2022-09-27T08:20:22.276Z,73.20
2022-09-27T08:22:48.952Z,73.76
2022-09-27T08:25:15.777Z,73.38
2022-09-27T08:27:42.465Z,74.16
2022-09-27T08:30:09.535Z,73.42
2022-09-27T08:32:37.211Z,74.01
2022-09-27T08:35:04.297Z,73.43
2022-09-27T08:37:30.930Z,73.56
2022-09-27T08:39:57.877Z,74.60
2022-09-27T08:42:24.418Z,74.25
2022-09-27T08:45:03.350Z,73.61
2022-09-27T08:47:43.972Z,73.76
2022-09-27T08:50:27.200Z,73.23
2022-09-27T08:52:58.160Z,72.41
2022-09-27T08:55:37.007Z,72.41
2022-09-27T08:58:15.722Z,72.55
2022-09-27T09:00:49.091Z,72.26
2022-09-27T09:03:36.513Z,71.80
2022-09-27T09:06:22.163Z,71.36
2022-09-27T09:09:23.136Z,71.85
2022-09-27T09:16:22.547Z,72.12
2022-09-27T09:19:19.303Z,73.11
2022-09-27T09:21:59.053Z,71.52
2022-09-27T09:25:21.855Z,71.57
2022-09-27T09:28:10.322Z,71.19
2022-09-27T09:31:10.763Z,72.13
2022-09-27T09:34:29.039Z,72.43
2022-09-27T09:37:28.285Z,71.40
2022-09-27T09:40:02.322Z,71.03
2022-09-27T09:43:10.651Z,72.28
2022-09-27T09:46:03.228Z,72.71
2022-09-27T09:48:38.237Z,73.42
2022-09-27T09:51:11.958Z,73.24
2022-09-27T09:53:45.668Z,73.77
2022-09-27T09:56:21.469Z,74.59
2022-09-27T09:59:07.170Z,74.29
2022-09-27T10:01:53.416Z,75.10
2022-09-27T10:04:33.272Z,75.31
2022-09-27T10:07:04.859Z,76.16
2022-09-27T10:09:33.817Z,76.99
2022-09-27T10:12:09.463Z,76.70
2022-09-27T10:14:43.335Z,77.20
2022-09-27T10:17:34.967Z,77.65
2022-09-27T10:20:09.491Z,77.78
2022-09-27T10:22:38.599Z,77.96
2022-09-27T10:25:09.875Z,78.22
2022-09-27T10:28:04.078Z,78.28
2022-09-27T10:30:32.647Z,78.70
2022-09-27T10:33:08.262Z,79.02
2022-09-27T10:35:41.664Z,79.17
2022-09-27T10:38:37.558Z,79.91
2022-09-27T10:41:26.174Z,79.17
2022-09-27T10:43:53.229Z,78.95
2022-09-27T10:46:33.748Z,79.82
2022-09-27T10:49:09.717Z,79.96
2022-09-27T10:51:36.391Z,79.85
2022-09-27T10:54:03.029Z,79.70
2022-09-27T10:56:33.955Z,80.10
2022-09-27T10:59:00.655Z,80.28
2022-09-27T11:01:27.680Z,80.75
2022-09-27T11:03:58.569Z,81.42
2022-09-27T11:06:25.092Z,81.39
2022-09-27T11:08:52.287Z,81.08
2022-09-27T11:11:28.619Z,80.81
2022-09-27T11:14:05.101Z,81.35
2022-09-27T11:16:37.774Z,74.47
2022-09-27T11:19:15.519Z,72.57
2022-09-27T11:22:01.371Z,73.32
2022-09-27T11:24:30.809Z,74.48
2022-09-27T11:27:13.021Z,75.55
2022-09-27T11:29:50.752Z,76.88
2022-09-27T11:32:48.680Z,77.37
2022-09-27T11:35:21.532Z,77.58
2022-09-27T11:37:48.073Z,77.74
2022-09-27T11:40:25.670Z,79.31
2022-09-27T11:43:05.775Z,79.22
2022-09-27T11:46:16.555Z,79.49
2022-09-27T11:49:00.259Z,79.95
2022-09-27T11:51:30.003Z,80.63
2022-09-27T11:54:20.494Z,81.37
2022-09-27T11:56:50.257Z,81.04
2022-09-27T11:59:58.680Z,80.77
2022-09-27T12:02:56.201Z,80.29
2022-09-27T12:05:58.102Z,79.10
2022-09-27T12:08:38.549Z,77.92
2022-09-27T12:11:13.577Z,78.79
2022-09-27T12:13:41.821Z,78.05
2022-09-27T12:16:08.442Z,78.17
2022-09-27T12:18:41.967Z,78.68
2022-09-27T12:21:09.726Z,79.08
2022-09-27T12:23:44.093Z,79.73
2022-09-27T12:26:26.295Z,79.29
2022-09-27T12:28:57.885Z,79.28
2022-09-27T12:31:30.442Z,79.51
2022-09-27T12:34:20.109Z,80.04
2022-09-27T12:37:03.294Z,79.99
2022-09-27T12:39:57.798Z,79.80
2022-09-27T12:42:27.532Z,80.00
2022-09-27T12:44:54.171Z,80.48
2022-09-27T12:47:55.487Z,80.40
2022-09-27T12:50:30.286Z,80.20
2022-09-27T12:53:13.161Z,80.36
2022-09-27T12:56:11.797Z,80.21
2022-09-27T12:58:44.234Z,80.64
2022-09-27T13:01:19.851Z,80.66
2022-09-27T13:04:03.560Z,80.43
2022-09-27T13:06:39.217Z,80.50
2022-09-27T13:09:19.378Z,80.91
2022-09-27T13:12:19.481Z,80.65
2022-09-27T13:15:01.257Z,80.53
2022-09-27T13:17:46.326Z,80.66
2022-09-27T13:20:28.256Z,80.55
2022-09-27T13:22:55.128Z,80.63
2022-09-27T13:25:51.658Z,80.49
2022-09-27T13:28:28.193Z,80.06
2022-09-27T13:31:04.408Z,79.88
2022-09-27T13:33:41.705Z,79.96
2022-09-27T13:36:21.858Z,79.33
2022-09-27T13:39:11.408Z,78.80
2022-09-27T13:41:50.518Z,78.95
2022-09-27T13:44:54.722Z,78.70
2022-09-27T13:47:37.731Z,79.07
2022-09-27T13:50:14.305Z,80.16
2022-09-27T13:52:43.146Z,80.26
2022-09-27T13:55:37.800Z,79.97
2022-09-27T13:58:12.764Z,79.90
2022-09-27T14:00:39.956Z,79.76
2022-09-27T14:03:35.733Z,79.50
2022-09-27T14:06:07.845Z,79.57
2022-09-27T14:08:36.316Z,79.31
2022-09-27T14:11:03.945Z,79.38
2022-09-27T14:13:32.156Z,79.34
2022-09-27T14:16:00.210Z,79.04
2022-09-27T14:18:26.799Z,78.49
2022-09-27T14:20:54.137Z,78.17
2022-09-27T14:23:25.067Z,78.68
2022-09-27T14:25:53.286Z,78.43
2022-09-27T14:28:20.691Z,78.13
2022-09-27T14:30:47.814Z,78.55
2022-09-27T14:33:31.624Z,77.77
2022-09-27T14:36:20.444Z,77.99
2022-09-27T14:38:49.645Z,77.43
2022-09-27T14:41:16.314Z,77.10
2022-09-27T14:43:44.216Z,77.19
2022-09-27T14:46:30.897Z,77.31
2022-09-27T14:48:57.997Z,77.84
2022-09-27T14:51:30.587Z,77.85
2022-09-27T14:54:00.710Z,77.81
2022-09-27T14:56:40.003Z,77.23
2022-09-27T14:59:12.882Z,76.51
2022-09-27T15:01:40.211Z,76.48
2022-09-27T15:04:08.053Z,75.53
2022-09-27T15:06:38.020Z,76.44
2022-09-27T15:09:05.529Z,76.56
2022-09-27T15:11:33.291Z,77.19
2022-09-27T15:14:01.868Z,77.19
2022-09-27T15:16:28.869Z,77.58
2022-09-27T15:18:59.701Z,77.09
2022-09-27T15:21:34.133Z,77.15
2022-09-27T15:24:01.924Z,77.15
2022-09-27T15:26:42.683Z,77.27
2022-09-27T15:29:19.770Z,77.80
2022-09-27T15:31:46.589Z,77.44
2022-09-27T15:34:17.941Z,77.12
2022-09-27T15:36:44.539Z,77.35
2022-09-27T15:39:12.524Z,77.92
2022-09-27T15:42:08.004Z,77.74
2022-09-27T15:45:06.284Z,78.13
2022-09-27T15:47:45.055Z,78.61
2022-09-27T15:50:17.626Z,79.05
2022-09-27T15:52:55.708Z,79.36
2022-09-27T15:55:27.082Z,80.14
2022-09-27T15:57:59.443Z,80.06
2022-09-27T16:00:26.591Z,79.95
2022-09-27T16:02:53.939Z,80.59
2022-09-27T16:05:47.464Z,80.57
2022-09-27T16:08:14.056Z,80.28
2022-09-27T16:10:43.129Z,79.85
2022-09-27T16:13:09.726Z,80.20
2022-09-27T16:15:36.480Z,79.75
2022-09-27T16:18:03.498Z,80.47
2022-09-27T16:20:31.936Z,80.65
2022-09-27T16:22:58.660Z,80.62
2022-09-27T16:25:25.307Z,80.66
2022-09-27T16:27:52.604Z,79.83
2022-09-27T16:30:20.699Z,79.77
2022-09-27T16:32:48.322Z,79.91
2022-09-27T16:35:16.028Z,79.48
2022-09-27T16:37:42.677Z,80.13
2022-09-27T16:40:10.116Z,80.29
2022-09-27T16:42:37.052Z,81.01
2022-09-27T16:45:09.535Z,80.88
2022-09-27T16:47:37.763Z,81.28
2022-09-27T16:50:23.264Z,81.43
2022-09-27T16:52:50.289Z,81.21
2022-09-27T16:55:21.143Z,82.10
2022-09-27T16:57:52.049Z,81.90
2022-09-27T17:00:18.802Z,82.65
2022-09-27T17:02:48.614Z,82.51
2022-09-27T17:05:15.731Z,82.71
2022-09-27T17:07:42.526Z,83.38
2022-09-27T17:10:09.612Z,83.62
2022-09-27T17:12:36.238Z,83.65
2022-09-27T17:15:02.862Z,83.69
2022-09-27T17:17:29.468Z,83.68
2022-09-27T17:19:56.161Z,84.14
2022-09-27T17:22:22.788Z,84.11
2022-09-27T17:24:49.413Z,84.53
2022-09-27T17:27:16.146Z,84.14
2022-09-27T17:29:42.801Z,84.21
2022-09-27T17:32:09.432Z,83.91
2022-09-27T17:34:36.565Z,84.88
2022-09-27T17:37:03.190Z,84.95
2022-09-27T17:39:29.830Z,84.74
2022-09-27T17:41:56.616Z,84.54
2022-09-27T17:44:23.913Z,84.92
2022-09-27T17:47:10.582Z,84.88
2022-09-27T17:49:55.476Z,85.02
2022-09-27T17:52:23.618Z,84.87
2022-09-27T17:54:51.786Z,84.42
2022-09-27T17:57:18.380Z,85.03
2022-09-27T17:59:45.022Z,85.46
2022-09-27T18:02:11.751Z,84.86
2022-09-27T18:04:38.411Z,84.91
2022-09-27T18:07:05.299Z,84.85
2022-09-27T18:09:32.233Z,85.34
2022-09-27T18:11:58.844Z,84.92
2022-09-27T18:14:26.717Z,85.01
2022-09-27T18:17:00.902Z,84.65
2022-09-27T18:19:28.069Z,84.39
2022-09-27T18:21:58.073Z,84.48
2022-09-27T18:24:35.033Z,84.62
2022-09-27T18:27:07.067Z,84.34
2022-09-27T18:29:36.536Z,84.59
2022-09-27T18:32:54.859Z,84.63
2022-09-27T18:35:30.373Z,84.24
2022-09-27T18:37:59.545Z,84.43
2022-09-27T18:40:51.456Z,84.84
2022-09-27T18:43:25.843Z,84.43
2022-09-27T18:45:59.086Z,84.15
2022-09-27T18:48:39.647Z,84.36
2022-09-27T18:51:14.664Z,84.60
2022-09-27T18:53:44.512Z,84.87
2022-09-27T18:56:14.130Z,84.40
2022-09-27T18:58:42.520Z,84.40
2022-09-27T19:01:18.292Z,84.95
2022-09-27T19:03:49.468Z,85.25
2022-09-27T19:06:32.767Z,85.22
2022-09-27T19:08:59.844Z,85.09
2022-09-27T19:18:39.159Z,85.33
2022-09-27T19:21:10.341Z,85.74
2022-09-27T19:23:39.974Z,85.35
2022-09-27T19:26:07.641Z,85.54
2022-09-27T19:28:43.798Z,85.88
2022-09-27T19:31:15.466Z,85.94
2022-09-27T19:33:45.107Z,85.32
2022-09-27T19:36:12.999Z,85.47
2022-09-27T19:38:42.097Z,85.63
2022-09-27T19:41:18.605Z,84.95
2022-09-27T19:43:56.186Z,84.84
2022-09-27T19:46:28.358Z,85.13
2022-09-27T19:52:46.691Z,84.93
2022-09-27T19:55:13.420Z,85.10
2022-09-27T19:57:40.217Z,85.33
2022-09-27T20:00:07.838Z,85.47
2022-09-27T20:02:34.632Z,85.01
2022-09-27T20:05:01.349Z,85.04
2022-09-27T20:07:28.053Z,85.22
2022-09-27T20:09:54.846Z,85.51
2022-09-27T20:12:21.469Z,84.92
2022-09-27T20:14:48.173Z,85.39
2022-09-27T20:17:14.850Z,85.72
2022-09-27T20:19:41.549Z,85.45
2022-09-27T20:26:03.950Z,85.89
2022-09-27T20:28:30.661Z,85.80
2022-09-27T20:31:03.164Z,85.90
2022-09-27T20:33:42.384Z,86.11
2022-09-27T20:36:13.695Z,85.75
2022-09-27T20:38:44.804Z,86.37
2022-09-27T20:41:12.079Z,86.03
2022-09-27T20:43:38.878Z,85.69
2022-09-27T20:46:07.901Z,86.04
2022-09-27T20:48:34.595Z,85.95
2022-09-27T20:51:04.788Z,85.72
2022-09-27T20:53:31.923Z,85.63
2022-09-27T20:55:59.520Z,85.25
2022-09-27T20:58:26.244Z,85.14
2022-09-27T21:00:52.994Z,85.50
2022-09-27T21:03:21.850Z,85.45
2022-09-27T21:05:58.368Z,85.20
2022-09-27T21:08:25.149Z,85.11
2022-09-27T21:10:53.926Z,85.10
2022-09-27T21:13:21.175Z,85.21
2022-09-27T21:15:47.885Z,85.11
2022-09-27T21:18:14.604Z,85.39
2022-09-27T21:20:41.285Z,84.76
2022-09-27T21:23:08.050Z,84.50
2022-09-27T21:25:34.690Z,84.85
2022-09-27T21:28:04.232Z,85.34
2022-09-27T21:30:31.429Z,84.63
2022-09-27T21:32:58.078Z,85.59
2022-09-27T21:35:24.676Z,85.08
2022-09-27T21:37:51.306Z,84.93
2022-09-27T21:40:18.023Z,83.82
2022-09-27T21:42:44.692Z,83.67
2022-09-27T21:45:11.757Z,83.40
2022-09-27T21:47:38.348Z,84.26
2022-09-27T21:50:05.278Z,84.23
2022-09-27T21:52:31.903Z,84.27
2022-09-27T21:54:58.471Z,84.65
2022-09-27T21:57:25.694Z,84.18
2022-09-27T21:59:52.326Z,83.97
2022-09-27T22:02:19.748Z,83.64
2022-09-27T22:04:48.983Z,83.43
2022-09-27T22:07:16.100Z,83.13
2022-09-27T22:09:42.734Z,82.71
2022-09-27T22:12:09.764Z,82.43
2022-09-27T22:14:36.438Z,82.31
2022-09-27T22:17:03.048Z,82.51
2022-09-27T22:19:29.666Z,81.76
2022-09-27T22:21:56.259Z,81.60
2022-09-27T22:24:23.677Z,81.53
2022-09-27T22:26:50.881Z,81.23
2022-09-27T22:29:17.609Z,81.60
2022-09-27T22:31:44.368Z,81.02
2022-09-27T22:34:20.870Z,81.02
2022-09-27T22:36:47.476Z,81.40
2022-09-27T22:39:14.221Z,81.87
2022-09-27T22:41:40.908Z,82.40
2022-09-27T22:44:08.587Z,82.59
2022-09-27T22:46:35.648Z,82.85
2022-09-27T22:49:02.356Z,82.97
2022-09-27T22:51:29.154Z,83.18
2022-09-27T22:53:56.156Z,83.20
2022-09-27T22:56:22.800Z,83.27
2022-09-27T22:58:49.506Z,82.80
2022-09-27T23:01:19.513Z,83.63
2022-09-27T23:03:47.178Z,83.85
2022-09-27T23:06:14.625Z,84.24
2022-09-27T23:08:41.553Z,84.90
2022-09-27T23:11:26.302Z,85.96
2022-09-27T23:13:52.979Z,85.50
2022-09-27T23:16:25.436Z,85.15
2022-09-27T23:18:53.714Z,85.28
2022-09-27T23:21:20.374Z,85.25
2022-09-27T23:23:47.193Z,85.11
2022-09-27T23:26:14.839Z,85.47
2022-09-27T23:28:41.511Z,85.48
2022-09-27T23:31:13.542Z,85.59
2022-09-27T23:33:42.079Z,85.80
2022-09-27T23:36:10.502Z,85.56
2022-09-27T23:38:37.856Z,85.90
2022-09-27T23:41:04.520Z,85.99
2022-09-27T23:43:31.170Z,86.74
2022-09-27T23:45:57.798Z,86.70
2022-09-27T23:48:25.559Z,86.95
2022-09-27T23:50:52.475Z,87.17
2022-09-27T23:53:19.936Z,87.10
2022-09-27T23:56:16.093Z,87.00
2022-09-27T23:58:44.004Z,86.79
